createdAt,value
2022-08-21T00:00:38.701Z,0
2022-08-21T00:02:38.603Z,0
2022-08-21T00:04:48.091Z,0
2022-08-21T00:06:41.845Z,0
2022-08-21T00:08:43.500Z,0
2022-08-21T00:10:44.922Z,0
2022-08-21T00:12:46.693Z,0
2022-08-21T00:14:47.719Z,0
2022-08-21T00:16:48.989Z,0
2022-08-21T00:18:50.124Z,0
2022-08-21T00:20:51.170Z,0
2022-08-21T00:22:52.915Z,0
2022-08-21T00:24:53.889Z,0
2022-08-21T00:26:54.874Z,0
2022-08-21T00:28:56.657Z,0
2022-08-21T00:30:57.651Z,0
2022-08-21T00:32:58.789Z,0
2022-08-21T00:35:00.551Z,0
2022-08-21T00:37:01.632Z,0
2022-08-21T00:37:45.391Z,0
2022-08-21T00:39:46.701Z,0
2022-08-21T00:41:47.739Z,0
2022-08-21T00:43:49.439Z,0
2022-08-21T00:45:50.885Z,0
2022-08-21T00:47:52.227Z,0
2022-08-21T00:49:54.074Z,0
2022-08-21T00:51:55.143Z,0.14
2022-08-21T00:53:56.677Z,0
2022-08-21T00:55:57.609Z,0
2022-08-21T00:57:58.954Z,0
2022-08-21T01:00:00.179Z,0
2022-08-21T01:02:01.997Z,0
2022-08-21T01:04:03.738Z,0
2022-08-21T01:06:05.495Z,0
2022-08-21T01:08:06.752Z,0
2022-08-21T01:10:07.744Z,0
2022-08-21T01:12:09.263Z,0
2022-08-21T01:14:10.253Z,0.28
2022-08-21T01:16:11.551Z,0
2022-08-21T01:18:13.267Z,0
2022-08-21T01:20:14.754Z,0
2022-08-21T01:22:16.301Z,0
2022-08-21T01:24:17.887Z,0.14
2022-08-21T01:26:19.714Z,0
2022-08-21T01:28:20.907Z,0
2022-08-21T01:30:21.956Z,0
2022-08-21T01:32:22.896Z,0
2022-08-21T01:34:23.942Z,0
2022-08-21T01:38:26.804Z,0
2022-08-21T01:40:27.968Z,0
2022-08-21T01:42:29.108Z,0
2022-08-21T01:44:30.771Z,0
2022-08-21T01:46:32.464Z,0
2022-08-21T01:48:34.035Z,0
2022-08-21T01:50:35.027Z,0
2022-08-21T01:52:36.565Z,0
2022-08-21T01:54:37.727Z,0
2022-08-21T01:56:39.556Z,0
2022-08-21T01:58:40.539Z,0
2022-08-21T02:00:41.904Z,0
2022-08-21T02:02:42.996Z,0
2022-08-21T02:04:44.862Z,0
2022-08-21T02:06:46.087Z,0
2022-08-21T02:10:49.244Z,0
2022-08-21T02:12:50.235Z,0
2022-08-21T02:14:51.238Z,0
2022-08-21T02:16:52.780Z,0
2022-08-21T02:20:56.194Z,0
2022-08-21T02:22:56.938Z,0
2022-08-21T02:24:58.273Z,0
2022-08-21T02:26:59.229Z,0
2022-08-21T02:29:00.452Z,0
2022-08-21T02:31:02.111Z,0
2022-08-21T02:33:03.249Z,0
2022-08-21T02:35:04.355Z,0
2022-08-21T02:37:05.910Z,0
2022-08-21T02:41:08.067Z,0
2022-08-21T02:43:09.531Z,0
2022-08-21T02:45:10.466Z,0
2022-08-21T02:47:12.058Z,0
2022-08-21T02:49:13.118Z,0
2022-08-21T02:51:14.667Z,0
2022-08-21T02:53:16.434Z,0
2022-08-21T02:55:18.261Z,0
2022-08-21T02:57:19.169Z,0
2022-08-21T02:59:20.361Z,0
2022-08-21T03:01:21.502Z,0
2022-08-21T03:03:22.532Z,0
2022-08-21T03:05:24.177Z,0
2022-08-21T03:07:25.613Z,0
2022-08-21T03:09:26.875Z,0
2022-08-21T03:11:28.098Z,0
2022-08-21T03:13:29.710Z,0
2022-08-21T03:15:31.231Z,0
2022-08-21T03:17:33.172Z,0
2022-08-21T03:19:34.862Z,0
2022-08-21T03:21:36.081Z,0
2022-08-21T03:23:37.805Z,0
2022-08-21T03:25:40.764Z,0
2022-08-21T03:27:40.379Z,0
2022-08-21T03:29:41.728Z,0
2022-08-21T03:31:42.964Z,0
2022-08-21T03:33:43.972Z,0
2022-08-21T03:35:45.715Z,0
2022-08-21T03:37:47.143Z,0
2022-08-21T03:39:48.467Z,0
2022-08-21T03:41:50.140Z,0
2022-08-21T03:43:51.552Z,0
2022-08-21T03:45:52.549Z,0
2022-08-21T03:47:53.899Z,0
2022-08-21T03:51:58.307Z,0
2022-08-21T03:53:57.038Z,0
2022-08-21T03:55:57.965Z,0
2022-08-21T03:57:59.288Z,0
2022-08-21T04:02:01.910Z,0
2022-08-21T04:04:03.425Z,0
2022-08-21T04:06:04.527Z,0
2022-08-21T04:08:05.539Z,0
2022-08-21T04:10:07.333Z,0
2022-08-21T04:12:09.268Z,0
2022-08-21T04:14:11.001Z,0
2022-08-21T04:16:12.286Z,0
2022-08-21T04:18:13.454Z,0
2022-08-21T04:20:15.115Z,0
2022-08-21T04:22:16.165Z,0
2022-08-21T04:24:17.124Z,0
2022-08-21T04:26:18.976Z,0
2022-08-21T04:28:20.303Z,0
2022-08-21T04:30:21.497Z,0
2022-08-21T04:32:22.886Z,0
2022-08-21T04:34:24.276Z,0
2022-08-21T04:36:25.484Z,0
2022-08-21T04:38:26.528Z,0
2022-08-21T04:40:28.392Z,0
2022-08-21T04:42:29.430Z,0
2022-08-21T04:44:30.956Z,0
2022-08-21T04:46:32.460Z,0
2022-08-21T04:48:34.276Z,0
2022-08-21T04:50:35.473Z,0
2022-08-21T04:52:37.085Z,0
2022-08-21T04:54:38.898Z,0
2022-08-21T04:56:40.789Z,0
2022-08-21T04:58:42.456Z,0
2022-08-21T05:00:43.895Z,0
2022-08-21T05:02:45.315Z,0
2022-08-21T05:04:46.826Z,0
2022-08-21T05:06:48.450Z,0
2022-08-21T05:08:49.994Z,0
2022-08-21T05:10:51.432Z,0
2022-08-21T05:14:53.757Z,0
2022-08-21T05:16:55.349Z,0
2022-08-21T05:18:56.714Z,0.14
2022-08-21T05:20:58.525Z,0
2022-08-21T05:22:59.554Z,0
2022-08-21T05:25:00.608Z,0
2022-08-21T05:27:03.760Z,0
2022-08-21T05:29:03.521Z,0
2022-08-21T05:31:05.258Z,0
2022-08-21T05:33:06.495Z,0
2022-08-21T05:35:07.657Z,0
2022-08-21T05:37:08.860Z,0
2022-08-21T05:39:10.070Z,0
2022-08-21T05:43:12.381Z,0
2022-08-21T05:45:13.981Z,0
2022-08-21T05:47:15.782Z,0
2022-08-21T05:49:17.045Z,0
2022-08-21T05:51:18.268Z,0
2022-08-21T05:53:19.145Z,0.561
2022-08-21T05:55:20.215Z,0
2022-08-21T05:57:21.958Z,0
2022-08-21T05:59:23.747Z,0
2022-08-21T06:01:24.845Z,0
2022-08-21T06:03:26.033Z,0
2022-08-21T06:05:33.445Z,0
2022-08-21T06:07:28.312Z,0
2022-08-21T06:09:29.581Z,0
2022-08-21T06:11:30.573Z,0
2022-08-21T06:15:33.473Z,0
2022-08-21T06:17:34.848Z,0
2022-08-21T06:19:36.598Z,0
2022-08-21T06:21:38.312Z,0
2022-08-21T06:25:41.033Z,0
2022-08-21T06:27:42.435Z,0
2022-08-21T06:29:44.749Z,0
2022-08-21T06:31:45.500Z,0
2022-08-21T06:33:46.456Z,0
2022-08-21T06:35:48.051Z,0
2022-08-21T06:37:49.589Z,0.421
2022-08-21T06:39:51.211Z,0
2022-08-21T06:41:52.899Z,0
2022-08-21T06:43:54.411Z,0
2022-08-21T06:45:55.264Z,0
2022-08-21T06:47:56.563Z,0
2022-08-21T06:49:57.872Z,0
2022-08-21T06:51:59.428Z,0
2022-08-21T06:54:00.787Z,0
2022-08-21T06:56:02.234Z,0
2022-08-21T06:58:03.081Z,0
2022-08-21T07:00:04.057Z,1.965
2022-08-21T07:02:05.648Z,0
2022-08-21T07:04:06.608Z,0
2022-08-21T07:06:07.908Z,0.982
2022-08-21T07:08:09.351Z,2.527
2022-08-21T07:10:12.064Z,0
2022-08-21T07:12:11.964Z,0
2022-08-21T07:14:19.962Z,0
2022-08-21T07:16:14.766Z,0
2022-08-21T07:18:15.845Z,0
2022-08-21T07:20:16.850Z,1.123
2022-08-21T07:22:17.843Z,0.421
2022-08-21T07:23:01.555Z,0.702
2022-08-21T07:25:03.312Z,1.544
2022-08-21T07:27:08.274Z,0
2022-08-21T07:29:06.204Z,0
2022-08-21T07:31:07.165Z,1.544
2022-08-21T07:33:08.907Z,0.28
2022-08-21T07:35:10.400Z,0.982
2022-08-21T07:37:11.501Z,0.982
2022-08-21T07:39:12.698Z,2.948
2022-08-21T07:41:13.758Z,0.28
2022-08-21T07:43:15.431Z,0.702
2022-08-21T07:45:17.185Z,1.825
2022-08-21T07:47:25.937Z,0
2022-08-21T07:49:18.966Z,0
2022-08-21T07:51:20.628Z,0.14
2022-08-21T07:53:22.079Z,2.246
2022-08-21T07:55:23.733Z,0.28
2022-08-21T07:57:25.031Z,0.28
2022-08-21T07:59:26.083Z,1.684
2022-08-21T08:01:27.094Z,1.404
2022-08-21T08:03:29.034Z,0.982
2022-08-21T08:05:29.946Z,2.246
2022-08-21T08:07:30.950Z,2.246
2022-08-21T08:09:32.112Z,0.842
2022-08-21T08:11:33.957Z,2.948
2022-08-21T08:13:35.668Z,3.79
2022-08-21T08:15:37.585Z,1.544
2022-08-21T08:17:38.091Z,0.982
2022-08-21T08:19:39.461Z,0.842
2022-08-21T08:21:40.800Z,0.14
2022-08-21T08:23:42.369Z,0.421
2022-08-21T08:25:43.928Z,0.561
2022-08-21T08:27:45.387Z,2.527
2022-08-21T08:29:46.158Z,1.123
2022-08-21T08:31:47.595Z,0.14
2022-08-21T08:33:48.463Z,3.931
2022-08-21T08:35:50.141Z,2.246
2022-08-21T08:37:52.419Z,1.263
2022-08-21T08:41:55.081Z,0.842
2022-08-21T08:43:55.445Z,1.544
2022-08-21T08:45:56.856Z,2.527
2022-08-21T08:47:58.443Z,0
2022-08-21T08:49:59.802Z,0.842
2022-08-21T08:52:01.445Z,1.123
2022-08-21T08:54:02.658Z,4.071
2022-08-21T08:56:03.881Z,1.263
2022-08-21T08:58:05.398Z,5.335
2022-08-21T09:00:06.528Z,2.246
2022-08-21T09:02:08.275Z,3.088
2022-08-21T09:04:09.967Z,3.088
2022-08-21T09:06:10.935Z,3.79
2022-08-21T09:08:15.427Z,4.914
2022-08-21T09:10:13.413Z,3.088
2022-08-21T09:12:14.304Z,2.527
2022-08-21T09:14:15.332Z,2.246
2022-08-21T09:16:17.068Z,3.931
2022-08-21T09:18:18.582Z,4.212
2022-08-21T09:20:19.441Z,4.492
2022-08-21T09:22:21.187Z,5.756
2022-08-21T09:24:22.895Z,2.667
2022-08-21T09:26:24.157Z,3.931
2022-08-21T09:28:25.223Z,5.475
2022-08-21T09:32:32.493Z,0
2022-08-21T09:34:28.203Z,3.369
2022-08-21T09:36:29.765Z,5.616
2022-08-21T09:38:30.604Z,2.386
2022-08-21T09:42:33.435Z,0.982
2022-08-21T09:44:34.520Z,1.965
2022-08-21T09:46:35.531Z,2.386
2022-08-21T09:48:37.001Z,2.527
2022-08-21T09:50:38.348Z,2.246
2022-08-21T09:54:40.643Z,0.702
2022-08-21T09:56:42.361Z,0.842
2022-08-21T09:58:43.832Z,1.965
2022-08-21T10:00:45.657Z,3.369
2022-08-21T10:02:47.217Z,0.28
2022-08-21T10:04:48.017Z,3.369
2022-08-21T10:06:49.210Z,0.14
2022-08-21T10:08:49.978Z,2.246
2022-08-21T10:10:51.562Z,4.773
2022-08-21T10:14:54.816Z,1.263
2022-08-21T10:16:55.697Z,6.177
2022-08-21T10:18:56.614Z,4.352
2022-08-21T10:22:59.909Z,0.842
2022-08-21T10:25:01.095Z,3.65
2022-08-21T10:27:02.468Z,2.527
2022-08-21T10:29:03.657Z,2.386
2022-08-21T10:31:04.602Z,1.965
2022-08-21T10:33:06.098Z,0.28
2022-08-21T10:35:07.306Z,5.194
2022-08-21T10:37:10.876Z,2.948
2022-08-21T10:39:26.240Z,3.51
2022-08-21T10:41:10.700Z,3.931
2022-08-21T10:43:11.674Z,1.965
2022-08-21T10:45:13.171Z,4.212
2022-08-21T10:47:14.409Z,4.633
2022-08-21T10:49:15.214Z,3.79
2022-08-21T10:51:16.590Z,1.544
2022-08-21T10:53:18.155Z,3.229
2022-08-21T10:55:19.124Z,3.65
2022-08-21T10:57:24.096Z,6.458
2022-08-21T10:59:22.174Z,5.335
2022-08-21T11:01:23.188Z,3.65
2022-08-21T11:03:24.398Z,0.561
2022-08-21T11:05:25.320Z,1.825
2022-08-21T11:07:27.009Z,0.982
2022-08-21T11:09:28.414Z,0.982
2022-08-21T11:11:29.788Z,1.544
2022-08-21T11:13:31.194Z,4.212
2022-08-21T11:15:32.572Z,5.054
2022-08-21T11:17:33.713Z,2.667
2022-08-21T11:19:35.063Z,1.965
2022-08-21T11:23:37.087Z,4.914
2022-08-21T11:25:38.056Z,0.702
2022-08-21T11:27:39.797Z,2.808
2022-08-21T11:29:41.493Z,4.492
2022-08-21T11:31:42.467Z,5.475
2022-08-21T11:33:43.736Z,2.667
2022-08-21T11:35:45.282Z,1.263
2022-08-21T11:37:46.465Z,6.177
2022-08-21T11:39:47.772Z,3.65
2022-08-21T11:41:48.701Z,0.982
2022-08-21T11:43:49.451Z,3.65
2022-08-21T11:45:50.457Z,4.071
2022-08-21T11:47:53.651Z,5.475
2022-08-21T11:49:52.844Z,4.352
2022-08-21T11:51:53.882Z,5.194
2022-08-21T11:53:55.195Z,6.739
2022-08-21T11:55:56.424Z,4.212
2022-08-21T11:57:57.295Z,6.037
2022-08-21T11:59:58.591Z,1.825
2022-08-21T12:02:00.167Z,4.071
2022-08-21T12:04:01.540Z,6.037
2022-08-21T12:06:02.538Z,5.756
2022-08-21T12:08:13.105Z,1.404
2022-08-21T12:10:05.334Z,3.931
2022-08-21T12:12:06.550Z,3.79
2022-08-21T12:14:07.749Z,3.369
2022-08-21T12:16:08.527Z,3.088
2022-08-21T12:18:09.418Z,2.808
2022-08-21T12:20:10.449Z,3.65
2022-08-21T12:22:12.034Z,2.386
2022-08-21T12:24:13.522Z,3.79
2022-08-21T12:26:15.184Z,4.914
2022-08-21T12:28:16.425Z,6.318
2022-08-21T12:30:17.560Z,6.037
2022-08-21T12:32:18.897Z,4.492
2022-08-21T12:34:19.790Z,4.352
2022-08-21T12:36:20.705Z,2.246
2022-08-21T12:38:21.754Z,4.492
2022-08-21T12:40:23.461Z,6.458
2022-08-21T12:42:24.832Z,0.982
2022-08-21T12:44:26.367Z,2.948
2022-08-21T12:46:27.678Z,5.335
2022-08-21T12:48:29.003Z,5.335
2022-08-21T12:50:30.004Z,6.739
2022-08-21T12:52:33.637Z,7.02
2022-08-21T12:54:32.907Z,3.79
2022-08-21T12:56:34.052Z,4.773
2022-08-21T12:58:35.286Z,0.28
2022-08-21T13:00:36.744Z,7.3
2022-08-21T13:04:39.352Z,3.229
2022-08-21T13:06:40.179Z,2.106
2022-08-21T13:08:43.524Z,5.335
2022-08-21T13:10:43.154Z,1.263
2022-08-21T13:12:44.711Z,2.386
2022-08-21T13:14:46.334Z,2.808
2022-08-21T13:16:46.857Z,3.369
2022-08-21T13:18:47.725Z,0.982
2022-08-21T13:20:49.234Z,4.212
2022-08-21T13:22:50.845Z,4.492
2022-08-21T13:24:52.415Z,2.948
2022-08-21T13:26:54.099Z,4.914
2022-08-21T13:28:55.337Z,0
2022-08-21T13:30:56.099Z,3.65
2022-08-21T13:32:57.429Z,2.246
2022-08-21T13:34:58.362Z,3.931
2022-08-21T13:36:59.664Z,6.037
2022-08-21T13:39:01.114Z,4.071
2022-08-21T13:41:02.736Z,3.65
2022-08-21T13:43:03.840Z,1.684
2022-08-21T13:45:05.489Z,2.948
2022-08-21T13:47:06.387Z,4.352
2022-08-21T13:49:07.854Z,0.982
2022-08-21T13:51:09.290Z,1.263
2022-08-21T13:53:10.429Z,3.088
2022-08-21T13:55:11.589Z,3.51
2022-08-21T13:57:12.609Z,1.965
2022-08-21T13:59:13.927Z,2.386
2022-08-21T14:01:15.179Z,4.914
2022-08-21T14:03:16.850Z,5.194
2022-08-21T14:05:18.295Z,4.352
2022-08-21T14:07:19.303Z,3.088
2022-08-21T14:09:20.419Z,4.773
2022-08-21T14:10:04.113Z,2.808
2022-08-21T14:12:04.982Z,1.825
2022-08-21T14:14:06.371Z,0.28
2022-08-21T14:16:08.008Z,0
2022-08-21T14:18:09.705Z,1.263
2022-08-21T14:20:10.834Z,3.229
2022-08-21T14:22:12.355Z,2.246
2022-08-21T14:24:13.819Z,1.825
2022-08-21T14:26:15.234Z,2.386
2022-08-21T14:28:19.430Z,1.404
2022-08-21T14:30:17.417Z,7.441
2022-08-21T14:32:22.058Z,0.982
2022-08-21T14:34:19.978Z,1.404
2022-08-21T14:36:20.393Z,0
2022-08-21T14:38:21.617Z,0
2022-08-21T14:40:22.858Z,2.948
2022-08-21T14:42:23.757Z,1.825
2022-08-21T14:44:25.098Z,1.123
2022-08-21T14:46:26.481Z,4.633
2022-08-21T14:48:28.002Z,5.054
2022-08-21T14:50:29.238Z,1.684
2022-08-21T14:52:31.010Z,3.65
2022-08-21T14:54:32.480Z,1.684
2022-08-21T14:56:33.160Z,3.229
2022-08-21T15:02:35.749Z,1.123
2022-08-21T15:04:36.910Z,0.28
2022-08-21T15:06:38.646Z,3.088
2022-08-21T15:08:40.395Z,1.123
2022-08-21T15:12:42.796Z,0.421
2022-08-21T15:14:43.553Z,3.369
2022-08-21T15:16:45.164Z,0.14
2022-08-21T15:18:46.306Z,2.386
2022-08-21T15:20:47.570Z,2.106
2022-08-21T15:22:49.127Z,2.667
2022-08-21T15:24:50.492Z,0.982
2022-08-21T15:26:52.211Z,2.386
2022-08-21T15:28:53.601Z,4.773
2022-08-21T15:30:54.435Z,2.808
2022-08-21T15:32:56.183Z,0.421
2022-08-21T15:34:57.381Z,1.825
2022-08-21T15:36:58.129Z,2.527
2022-08-21T15:38:59.425Z,5.335
2022-08-21T15:41:00.787Z,1.965
2022-08-21T15:43:01.995Z,0.14
2022-08-21T15:45:03.129Z,0.702
2022-08-21T15:47:04.413Z,0.421
2022-08-21T15:49:05.747Z,0.842
2022-08-21T15:51:06.996Z,0.28
2022-08-21T15:53:08.459Z,1.684
2022-08-21T15:55:09.278Z,3.65
2022-08-21T15:57:10.860Z,0.14
2022-08-21T16:01:13.606Z,1.123
2022-08-21T16:03:14.592Z,0.982
2022-08-21T16:05:16.244Z,4.633
2022-08-21T16:07:18.093Z,2.106
2022-08-21T16:11:19.911Z,1.965
2022-08-21T16:13:21.240Z,1.123
2022-08-21T16:15:21.835Z,3.931
2022-08-21T16:17:23.273Z,0
2022-08-21T16:19:24.368Z,0.842
2022-08-21T16:21:25.176Z,2.386
2022-08-21T16:23:26.695Z,0.14
2022-08-21T16:27:29.227Z,3.931
2022-08-21T16:29:30.466Z,2.667
2022-08-21T16:31:31.274Z,0.982
2022-08-21T16:33:32.474Z,2.527
2022-08-21T16:35:34.113Z,3.369
2022-08-21T16:37:43.827Z,1.684
2022-08-21T16:39:37.385Z,1.825
2022-08-21T16:41:38.587Z,0.14
2022-08-21T16:43:39.715Z,0.14
2022-08-21T16:45:41.276Z,4.212
2022-08-21T16:47:42.957Z,0.842
2022-08-21T16:49:44.288Z,4.914
2022-08-21T16:51:45.337Z,0.14
2022-08-21T16:53:46.925Z,1.263
2022-08-21T16:55:48.233Z,1.404
2022-08-21T16:57:49.646Z,0
2022-08-21T16:59:51.331Z,0
2022-08-21T17:01:52.319Z,1.544
2022-08-21T17:03:53.258Z,1.263
2022-08-21T17:05:55.004Z,1.123
2022-08-21T17:07:56.306Z,1.123
2022-08-21T17:09:57.097Z,0
2022-08-21T17:11:57.946Z,3.51
2022-08-21T17:13:58.795Z,0.842
2022-08-21T17:16:00.279Z,2.386
2022-08-21T17:18:01.954Z,0.28
2022-08-21T17:20:03.332Z,0.982
2022-08-21T17:22:04.326Z,0.702
2022-08-21T17:24:05.748Z,0
2022-08-21T17:26:06.918Z,0.561
2022-08-21T17:28:08.286Z,0.702
2022-08-21T17:30:09.363Z,0.702
2022-08-21T17:32:10.641Z,0.561
2022-08-21T17:34:12.118Z,0.702
2022-08-21T17:36:13.734Z,0.982
2022-08-21T17:38:15.101Z,1.263
2022-08-21T17:42:18.051Z,1.123
2022-08-21T17:44:19.140Z,0.842
2022-08-21T17:46:20.349Z,0.561
2022-08-21T17:48:22.207Z,1.544
2022-08-21T17:52:23.492Z,0
2022-08-21T17:54:25.019Z,1.544
2022-08-21T17:56:26.440Z,0.14
2022-08-21T17:58:27.778Z,1.123
2022-08-21T18:00:28.746Z,0
2022-08-21T18:02:29.849Z,0.28
2022-08-21T18:04:31.198Z,0
2022-08-21T18:06:32.527Z,1.965
2022-08-21T18:08:34.031Z,0.561
2022-08-21T18:10:35.623Z,0
2022-08-21T18:12:37.281Z,1.123
2022-08-21T18:14:38.468Z,0
2022-08-21T18:16:39.464Z,0
2022-08-21T18:18:40.407Z,0
2022-08-21T18:20:41.620Z,0
2022-08-21T18:22:42.997Z,0
2022-08-21T18:24:44.788Z,0
2022-08-21T18:26:45.811Z,0
2022-08-21T18:28:46.727Z,0
2022-08-21T18:30:47.705Z,0
2022-08-21T18:32:48.666Z,0
2022-08-21T18:34:50.303Z,0
2022-08-21T18:36:52.008Z,0
2022-08-21T18:38:53.509Z,0.702
2022-08-21T18:40:56.027Z,0
2022-08-21T18:42:56.615Z,0
2022-08-21T18:44:58.237Z,0
2022-08-21T18:46:59.928Z,0
2022-08-21T18:49:00.713Z,0
2022-08-21T18:51:02.515Z,0
2022-08-21T18:53:03.694Z,0
2022-08-21T18:55:06.031Z,0
2022-08-21T18:57:08.444Z,0.702
2022-08-21T18:59:08.187Z,0
2022-08-21T19:01:09.850Z,0
2022-08-21T19:03:10.763Z,0
2022-08-21T19:05:11.927Z,0.14
2022-08-21T19:07:14.068Z,0
2022-08-21T19:09:14.954Z,0
2022-08-21T19:11:15.840Z,0
2022-08-21T19:13:17.395Z,0.421
2022-08-21T19:15:18.919Z,0.28
2022-08-21T19:17:20.138Z,0
2022-08-21T19:19:21.514Z,0
2022-08-21T19:21:23.261Z,0
2022-08-21T19:23:29.090Z,0
2022-08-21T19:25:33.213Z,0
2022-08-21T19:27:26.818Z,0
2022-08-21T19:29:34.468Z,0
2022-08-21T19:31:29.586Z,0
2022-08-21T19:33:31.383Z,0
2022-08-21T19:35:32.938Z,0
2022-08-21T19:37:34.013Z,0
2022-08-21T19:39:35.013Z,0
2022-08-21T19:41:36.085Z,0.28
2022-08-21T19:43:37.522Z,0.14
2022-08-21T19:45:38.714Z,0
2022-08-21T19:47:39.619Z,0
2022-08-21T19:49:40.939Z,0.14
2022-08-21T19:51:42.797Z,0.982
2022-08-21T19:53:44.326Z,2.527
2022-08-21T19:55:45.687Z,2.386
2022-08-21T19:57:46.928Z,1.263
2022-08-21T19:59:48.374Z,2.386
2022-08-21T20:01:49.461Z,0
2022-08-21T20:05:51.684Z,0.421
2022-08-21T20:07:53.064Z,0
2022-08-21T20:09:54.551Z,0
2022-08-21T20:11:55.460Z,0.561
2022-08-21T20:15:58.268Z,0
2022-08-21T20:17:59.913Z,0
2022-08-21T20:20:01.593Z,0
2022-08-21T20:22:03.437Z,0
2022-08-21T20:24:05.166Z,0
2022-08-21T20:26:06.791Z,0
2022-08-21T20:30:08.904Z,0
2022-08-21T20:32:11.982Z,0
2022-08-21T20:34:11.820Z,0
2022-08-21T20:36:13.556Z,0
2022-08-21T20:38:15.365Z,0
2022-08-21T20:40:20.800Z,0
2022-08-21T20:42:18.460Z,0
2022-08-21T20:44:19.690Z,0
2022-08-21T20:46:20.942Z,0
2022-08-21T20:48:22.302Z,0
2022-08-21T20:50:23.550Z,0
2022-08-21T20:52:24.774Z,0
2022-08-21T20:54:26.385Z,0
2022-08-21T20:55:10.185Z,0
2022-08-21T20:59:12.871Z,0
2022-08-21T21:01:14.289Z,0.561
2022-08-21T21:03:15.324Z,0
2022-08-21T21:05:16.689Z,0
2022-08-21T21:07:17.569Z,0
2022-08-21T21:11:21.139Z,0
2022-08-21T21:13:22.041Z,0
2022-08-21T21:15:27.848Z,0
2022-08-21T21:17:25.765Z,0
2022-08-21T21:19:26.532Z,0
2022-08-21T21:21:32.541Z,0
2022-08-21T21:23:29.316Z,0
2022-08-21T21:25:35.777Z,0
2022-08-21T21:27:34.754Z,0
2022-08-21T21:29:33.199Z,0
2022-08-21T21:31:34.292Z,0
2022-08-21T21:33:35.171Z,0
2022-08-21T21:35:36.356Z,0
2022-08-21T21:37:37.682Z,0
2022-08-21T21:39:38.666Z,0
2022-08-21T21:41:41.166Z,0
2022-08-21T21:43:41.942Z,0
2022-08-21T21:45:43.258Z,0
2022-08-21T21:47:44.713Z,0
2022-08-21T21:49:49.481Z,0
2022-08-21T21:51:46.989Z,0
2022-08-21T21:53:50.645Z,0
2022-08-21T21:55:49.991Z,0
2022-08-21T21:57:52.332Z,0
2022-08-21T21:59:53.385Z,0
2022-08-21T22:01:54.328Z,0
2022-08-21T22:03:55.921Z,0
2022-08-21T22:05:57.430Z,0
2022-08-21T22:07:58.410Z,0
2022-08-21T22:09:59.591Z,0
2022-08-21T22:12:01.460Z,0
2022-08-21T22:14:03.580Z,0
2022-08-21T22:16:05.242Z,0
2022-08-21T22:18:06.851Z,0
2022-08-21T22:20:07.473Z,0
2022-08-21T22:22:09.224Z,0
2022-08-21T22:24:11.500Z,0
2022-08-21T22:26:12.067Z,0
2022-08-21T22:28:13.512Z,0
2022-08-21T22:30:15.497Z,0
2022-08-21T22:34:19.530Z,0
2022-08-21T22:36:20.151Z,0
2022-08-21T22:38:21.360Z,0
2022-08-21T22:40:22.983Z,0
2022-08-21T22:42:24.856Z,0
2022-08-21T22:46:27.617Z,0
2022-08-21T22:48:29.516Z,0
2022-08-21T22:50:31.330Z,0
2022-08-21T22:52:32.757Z,0
2022-08-21T22:54:34.097Z,0
2022-08-21T22:56:35.395Z,0
2022-08-21T22:58:37.208Z,0
2022-08-21T23:00:39.031Z,0
2022-08-21T23:04:42.648Z,0
2022-08-21T23:06:43.976Z,0
2022-08-21T23:08:45.020Z,0
2022-08-21T23:10:46.572Z,0
2022-08-21T23:12:48.890Z,0
2022-08-21T23:16:51.781Z,0
2022-08-21T23:18:53.244Z,0
2022-08-21T23:20:55.599Z,0
2022-08-21T23:22:56.202Z,0
2022-08-21T23:24:57.343Z,0
2022-08-21T23:26:59.099Z,0
2022-08-21T23:29:00.596Z,0
2022-08-21T23:31:02.134Z,0
2022-08-21T23:33:03.601Z,0
2022-08-21T23:35:05.054Z,0
2022-08-21T23:37:06.203Z,0
2022-08-21T23:39:07.825Z,0
2022-08-21T23:41:11.066Z,0
2022-08-21T23:43:10.377Z,0
2022-08-21T23:45:13.912Z,0
2022-08-21T23:49:17.516Z,0
2022-08-21T23:51:15.971Z,0
2022-08-21T23:53:17.253Z,0
2022-08-21T23:55:18.328Z,0
2022-08-21T23:59:21.603Z,0
